sensor_id;sensor_type;location;lat;lon;timestamp;P1;durP1;ratioP1;P2;durP2;ratioP2
84794;SDS011;75026;49.184;16.564;2024-03-22T00:02:14;12.52;;;7.72;;
84794;SDS011;75026;49.184;16.564;2024-03-22T00:07:15;18.38;;;8.43;;
84794;SDS011;75026;49.184;16.564;2024-03-22T00:12:16;12.60;;;7.15;;
84794;SDS011;75026;49.184;16.564;2024-03-22T00:17:17;13.00;;;7.68;;
84794;SDS011;75026;49.184;16.564;2024-03-22T00:22:20;11.75;;;7.50;;
84794;SDS011;75026;49.184;16.564;2024-03-22T00:27:21;11.13;;;7.35;;
84794;SDS011;75026;49.184;16.564;2024-03-22T00:32:22;12.90;;;7.63;;
84794;SDS011;75026;49.184;16.564;2024-03-22T00:37:23;12.98;;;7.80;;
84794;SDS011;75026;49.184;16.564;2024-03-22T00:42:23;11.23;;;6.97;;
84794;SDS011;75026;49.184;16.564;2024-03-22T00:47:24;12.35;;;7.18;;
84794;SDS011;75026;49.184;16.564;2024-03-22T00:52:25;11.60;;;6.85;;
84794;SDS011;75026;49.184;16.564;2024-03-22T00:57:26;12.02;;;6.95;;
84794;SDS011;75026;49.184;16.564;2024-03-22T01:02:26;11.43;;;7.13;;
84794;SDS011;75026;49.184;16.564;2024-03-22T01:07:27;12.07;;;6.97;;
84794;SDS011;75026;49.184;16.564;2024-03-22T01:12:28;11.25;;;7.00;;
84794;SDS011;75026;49.184;16.564;2024-03-22T01:17:29;10.98;;;6.78;;
84794;SDS011;75026;49.184;16.564;2024-03-22T01:22:30;11.95;;;6.75;;
84794;SDS011;75026;49.184;16.564;2024-03-22T01:27:30;11.48;;;6.75;;
84794;SDS011;75026;49.184;16.564;2024-03-22T01:32:31;11.98;;;6.82;;
84794;SDS011;75026;49.184;16.564;2024-03-22T01:37:32;10.15;;;6.53;;
84794;SDS011;75026;49.184;16.564;2024-03-22T01:42:33;13.23;;;6.80;;
84794;SDS011;75026;49.184;16.564;2024-03-22T01:47:34;11.43;;;6.57;;
84794;SDS011;75026;49.184;16.564;2024-03-22T01:52:35;11.25;;;6.60;;
84794;SDS011;75026;49.184;16.564;2024-03-22T01:57:37;11.10;;;6.60;;
84794;SDS011;75026;49.184;16.564;2024-03-22T02:02:38;11.52;;;6.68;;
84794;SDS011;75026;49.184;16.564;2024-03-22T02:07:39;10.98;;;6.40;;
84794;SDS011;75026;49.184;16.564;2024-03-22T02:12:40;12.10;;;6.47;;
84794;SDS011;75026;49.184;16.564;2024-03-22T02:17:41;11.35;;;6.85;;
84794;SDS011;75026;49.184;16.564;2024-03-22T02:22:42;11.07;;;6.82;;
84794;SDS011;75026;49.184;16.564;2024-03-22T02:27:43;10.73;;;6.53;;
84794;SDS011;75026;49.184;16.564;2024-03-22T02:32:43;10.95;;;6.35;;
84794;SDS011;75026;49.184;16.564;2024-03-22T02:37:44;11.55;;;6.47;;
84794;SDS011;75026;49.184;16.564;2024-03-22T02:42:45;10.23;;;5.97;;
84794;SDS011;75026;49.184;16.564;2024-03-22T02:47:46;9.88;;;6.30;;
84794;SDS011;75026;49.184;16.564;2024-03-22T02:52:48;10.77;;;6.90;;
84794;SDS011;75026;49.184;16.564;2024-03-22T02:57:49;10.95;;;6.32;;
84794;SDS011;75026;49.184;16.564;2024-03-22T03:02:50;11.65;;;6.40;;
84794;SDS011;75026;49.184;16.564;2024-03-22T03:07:51;10.80;;;6.28;;
84794;SDS011;75026;49.184;16.564;2024-03-22T03:12:54;10.90;;;6.28;;
84794;SDS011;75026;49.184;16.564;2024-03-22T03:17:55;9.75;;;5.82;;
84794;SDS011;75026;49.184;16.564;2024-03-22T03:22:56;9.35;;;5.90;;
84794;SDS011;75026;49.184;16.564;2024-03-22T03:27:59;10.15;;;6.20;;
84794;SDS011;75026;49.184;16.564;2024-03-22T03:33:00;9.93;;;5.82;;
84794;SDS011;75026;49.184;16.564;2024-03-22T03:38:01;8.70;;;5.45;;
84794;SDS011;75026;49.184;16.564;2024-03-22T03:43:02;10.10;;;5.78;;
84794;SDS011;75026;49.184;16.564;2024-03-22T03:48:03;10.20;;;5.60;;
84794;SDS011;75026;49.184;16.564;2024-03-22T03:53:04;10.05;;;6.03;;
84794;SDS011;75026;49.184;16.564;2024-03-22T03:58:05;10.63;;;5.97;;
84794;SDS011;75026;49.184;16.564;2024-03-22T04:03:07;9.85;;;5.93;;
84794;SDS011;75026;49.184;16.564;2024-03-22T04:08:08;9.98;;;5.90;;
84794;SDS011;75026;49.184;16.564;2024-03-22T04:13:09;9.18;;;5.72;;
84794;SDS011;75026;49.184;16.564;2024-03-22T04:18:10;8.40;;;5.25;;
84794;SDS011;75026;49.184;16.564;2024-03-22T04:23:11;9.55;;;5.38;;
84794;SDS011;75026;49.184;16.564;2024-03-22T04:28:14;9.15;;;5.38;;
84794;SDS011;75026;49.184;16.564;2024-03-22T04:33:15;8.50;;;5.75;;
84794;SDS011;75026;49.184;16.564;2024-03-22T04:38:15;9.07;;;5.63;;
84794;SDS011;75026;49.184;16.564;2024-03-22T04:43:16;8.75;;;5.38;;
84794;SDS011;75026;49.184;16.564;2024-03-22T04:48:18;8.32;;;5.10;;
84794;SDS011;75026;49.184;16.564;2024-03-22T04:53:21;8.57;;;5.25;;
84794;SDS011;75026;49.184;16.564;2024-03-22T04:58:22;9.02;;;5.53;;
84794;SDS011;75026;49.184;16.564;2024-03-22T05:03:23;8.52;;;5.38;;
84794;SDS011;75026;49.184;16.564;2024-03-22T05:08:23;7.60;;;4.80;;
84794;SDS011;75026;49.184;16.564;2024-03-22T05:13:24;8.00;;;5.13;;
84794;SDS011;75026;49.184;16.564;2024-03-22T05:18:25;8.57;;;5.22;;
84794;SDS011;75026;49.184;16.564;2024-03-22T05:23:26;9.15;;;5.25;;
84794;SDS011;75026;49.184;16.564;2024-03-22T05:28:27;7.50;;;4.82;;
84794;SDS011;75026;49.184;16.564;2024-03-22T05:33:27;7.57;;;4.88;;
84794;SDS011;75026;49.184;16.564;2024-03-22T05:38:29;7.70;;;4.88;;
84794;SDS011;75026;49.184;16.564;2024-03-22T05:43:29;9.23;;;5.22;;
84794;SDS011;75026;49.184;16.564;2024-03-22T05:48:30;7.95;;;5.05;;
84794;SDS011;75026;49.184;16.564;2024-03-22T05:53:31;7.60;;;4.63;;
84794;SDS011;75026;49.184;16.564;2024-03-22T05:58:32;7.50;;;4.55;;
84794;SDS011;75026;49.184;16.564;2024-03-22T06:03:32;7.40;;;4.72;;
84794;SDS011;75026;49.184;16.564;2024-03-22T06:08:33;7.65;;;4.45;;
84794;SDS011;75026;49.184;16.564;2024-03-22T06:13:35;6.65;;;4.50;;
84794;SDS011;75026;49.184;16.564;2024-03-22T06:18:36;8.00;;;4.90;;
84794;SDS011;75026;49.184;16.564;2024-03-22T06:23:38;8.20;;;4.72;;
84794;SDS011;75026;49.184;16.564;2024-03-22T06:28:39;8.13;;;4.85;;
84794;SDS011;75026;49.184;16.564;2024-03-22T06:33:40;7.40;;;4.50;;
84794;SDS011;75026;49.184;16.564;2024-03-22T06:38:41;7.07;;;4.43;;
84794;SDS011;75026;49.184;16.564;2024-03-22T06:43:42;7.28;;;4.60;;
84794;SDS011;75026;49.184;16.564;2024-03-22T06:48:43;7.45;;;4.47;;
84794;SDS011;75026;49.184;16.564;2024-03-22T06:53:44;7.75;;;4.55;;
84794;SDS011;75026;49.184;16.564;2024-03-22T06:58:46;6.28;;;4.00;;
84794;SDS011;75026;49.184;16.564;2024-03-22T07:03:47;6.53;;;4.07;;
84794;SDS011;75026;49.184;16.564;2024-03-22T07:08:48;7.55;;;4.10;;
84794;SDS011;75026;49.184;16.564;2024-03-22T07:13:48;6.47;;;4.43;;
84794;SDS011;75026;49.184;16.564;2024-03-22T07:18:49;6.25;;;4.10;;
84794;SDS011;75026;49.184;16.564;2024-03-22T07:23:50;6.03;;;4.10;;
84794;SDS011;75026;49.184;16.564;2024-03-22T07:28:51;6.93;;;4.45;;
84794;SDS011;75026;49.184;16.564;2024-03-22T07:33:53;12.32;;;4.40;;
84794;SDS011;75026;49.184;16.564;2024-03-22T07:38:54;7.57;;;4.22;;
84794;SDS011;75026;49.184;16.564;2024-03-22T07:43:56;6.97;;;4.00;;
84794;SDS011;75026;49.184;16.564;2024-03-22T07:48:57;6.30;;;4.15;;
84794;SDS011;75026;49.184;16.564;2024-03-22T07:53:58;8.35;;;3.95;;
84794;SDS011;75026;49.184;16.564;2024-03-22T07:58:59;7.70;;;4.13;;
84794;SDS011;75026;49.184;16.564;2024-03-22T08:04:00;7.68;;;4.25;;
84794;SDS011;75026;49.184;16.564;2024-03-22T08:09:01;7.40;;;4.00;;
84794;SDS011;75026;49.184;16.564;2024-03-22T08:14:03;7.13;;;3.90;;
84794;SDS011;75026;49.184;16.564;2024-03-22T08:19:04;6.85;;;3.83;;
84794;SDS011;75026;49.184;16.564;2024-03-22T08:24:05;6.70;;;4.13;;
84794;SDS011;75026;49.184;16.564;2024-03-22T08:29:06;6.60;;;3.80;;
84794;SDS011;75026;49.184;16.564;2024-03-22T08:34:07;8.20;;;3.95;;
84794;SDS011;75026;49.184;16.564;2024-03-22T08:39:08;5.25;;;3.60;;
84794;SDS011;75026;49.184;16.564;2024-03-22T08:44:10;5.97;;;3.80;;
84794;SDS011;75026;49.184;16.564;2024-03-22T08:49:11;6.80;;;3.95;;
84794;SDS011;75026;49.184;16.564;2024-03-22T08:54:13;6.38;;;3.90;;
84794;SDS011;75026;49.184;16.564;2024-03-22T08:59:15;9.38;;;4.10;;
84794;SDS011;75026;49.184;16.564;2024-03-22T09:04:15;6.60;;;3.72;;
84794;SDS011;75026;49.184;16.564;2024-03-22T09:09:16;7.80;;;3.65;;
84794;SDS011;75026;49.184;16.564;2024-03-22T09:14:17;8.88;;;3.78;;
84794;SDS011;75026;49.184;16.564;2024-03-22T09:19:18;8.90;;;3.70;;
84794;SDS011;75026;49.184;16.564;2024-03-22T09:24:19;6.75;;;3.40;;
84794;SDS011;75026;49.184;16.564;2024-03-22T09:29:20;6.00;;;3.47;;
84794;SDS011;75026;49.184;16.564;2024-03-22T09:34:23;5.90;;;3.20;;
84794;SDS011;75026;49.184;16.564;2024-03-22T09:39:24;8.38;;;3.72;;
84794;SDS011;75026;49.184;16.564;2024-03-22T09:44:25;11.63;;;4.45;;
84794;SDS011;75026;49.184;16.564;2024-03-22T09:49:28;12.43;;;5.70;;
84794;SDS011;75026;49.184;16.564;2024-03-22T09:54:28;9.57;;;5.35;;
84794;SDS011;75026;49.184;16.564;2024-03-22T09:59:30;9.57;;;5.40;;
84794;SDS011;75026;49.184;16.564;2024-03-22T10:04:31;10.85;;;5.47;;
84794;SDS011;75026;49.184;16.564;2024-03-22T10:09:32;13.77;;;6.25;;
84794;SDS011;75026;49.184;16.564;2024-03-22T10:14:35;12.30;;;6.40;;
84794;SDS011;75026;49.184;16.564;2024-03-22T10:19:37;11.13;;;6.22;;
84794;SDS011;75026;49.184;16.564;2024-03-22T10:24:38;10.00;;;6.30;;
84794;SDS011;75026;49.184;16.564;2024-03-22T10:29:39;12.93;;;6.30;;
84794;SDS011;75026;49.184;16.564;2024-03-22T10:34:40;8.88;;;5.78;;
84794;SDS011;75026;49.184;16.564;2024-03-22T10:39:42;15.85;;;6.32;;
84794;SDS011;75026;49.184;16.564;2024-03-22T10:44:46;16.67;;;6.40;;
84794;SDS011;75026;49.184;16.564;2024-03-22T10:49:47;16.08;;;5.80;;
84794;SDS011;75026;49.184;16.564;2024-03-22T10:54:50;12.18;;;5.90;;
84794;SDS011;75026;49.184;16.564;2024-03-22T10:59:54;11.82;;;5.68;;
84794;SDS011;75026;49.184;16.564;2024-03-22T11:04:58;10.43;;;5.40;;
84794;SDS011;75026;49.184;16.564;2024-03-22T11:10:01;8.90;;;5.70;;
84794;SDS011;75026;49.184;16.564;2024-03-22T11:20:05;21.60;;;5.57;;
84794;SDS011;75026;49.184;16.564;2024-03-22T11:25:07;10.63;;;4.95;;
84794;SDS011;75026;49.184;16.564;2024-03-22T11:30:08;12.68;;;5.10;;
84794;SDS011;75026;49.184;16.564;2024-03-22T11:35:12;12.40;;;4.65;;
84794;SDS011;75026;49.184;16.564;2024-03-22T11:40:13;32.30;;;7.28;;
84794;SDS011;75026;49.184;16.564;2024-03-22T11:45:15;24.63;;;6.65;;
84794;SDS011;75026;49.184;16.564;2024-03-22T11:50:18;17.88;;;5.97;;
84794;SDS011;75026;49.184;16.564;2024-03-22T11:55:20;31.92;;;6.97;;
84794;SDS011;75026;49.184;16.564;2024-03-22T12:00:21;13.88;;;5.78;;
84794;SDS011;75026;49.184;16.564;2024-03-22T12:05:23;15.90;;;5.65;;
84794;SDS011;75026;49.184;16.564;2024-03-22T12:10:25;24.02;;;5.68;;
84794;SDS011;75026;49.184;16.564;2024-03-22T12:15:26;13.85;;;5.80;;
84794;SDS011;75026;49.184;16.564;2024-03-22T12:20:26;15.63;;;5.40;;
84794;SDS011;75026;49.184;16.564;2024-03-22T12:25:27;13.15;;;6.40;;
84794;SDS011;75026;49.184;16.564;2024-03-22T12:30:28;10.25;;;4.47;;
84794;SDS011;75026;49.184;16.564;2024-03-22T12:35:29;11.95;;;4.90;;
84794;SDS011;75026;49.184;16.564;2024-03-22T12:40:33;10.38;;;4.32;;
84794;SDS011;75026;49.184;16.564;2024-03-22T12:45:34;14.35;;;4.82;;
84794;SDS011;75026;49.184;16.564;2024-03-22T12:50:35;11.55;;;4.30;;
84794;SDS011;75026;49.184;16.564;2024-03-22T12:55:36;10.55;;;4.75;;
84794;SDS011;75026;49.184;16.564;2024-03-22T13:00:37;15.30;;;4.97;;
84794;SDS011;75026;49.184;16.564;2024-03-22T13:05:38;13.75;;;4.93;;
84794;SDS011;75026;49.184;16.564;2024-03-22T13:10:39;17.13;;;4.80;;
84794;SDS011;75026;49.184;16.564;2024-03-22T13:15:43;14.90;;;4.97;;
84794;SDS011;75026;49.184;16.564;2024-03-22T13:20:46;18.05;;;4.90;;
84794;SDS011;75026;49.184;16.564;2024-03-22T13:25:47;24.85;;;4.90;;
84794;SDS011;75026;49.184;16.564;2024-03-22T13:30:48;22.95;;;5.35;;
84794;SDS011;75026;49.184;16.564;2024-03-22T13:35:49;12.25;;;4.55;;
84794;SDS011;75026;49.184;16.564;2024-03-22T13:40:57;19.33;;;4.45;;
84794;SDS011;75026;49.184;16.564;2024-03-22T13:46:01;10.75;;;4.43;;
84794;SDS011;75026;49.184;16.564;2024-03-22T13:51:02;14.50;;;4.05;;
84794;SDS011;75026;49.184;16.564;2024-03-22T13:56:03;20.35;;;4.07;;
84794;SDS011;75026;49.184;16.564;2024-03-22T14:01:04;9.15;;;4.93;;
84794;SDS011;75026;49.184;16.564;2024-03-22T14:06:05;7.45;;;3.65;;
84794;SDS011;75026;49.184;16.564;2024-03-22T14:11:06;9.48;;;3.75;;
84794;SDS011;75026;49.184;16.564;2024-03-22T14:16:07;8.38;;;3.55;;
84794;SDS011;75026;49.184;16.564;2024-03-22T14:21:08;12.27;;;3.92;;
84794;SDS011;75026;49.184;16.564;2024-03-22T14:26:09;11.50;;;3.75;;
84794;SDS011;75026;49.184;16.564;2024-03-22T14:31:10;9.40;;;4.00;;
84794;SDS011;75026;49.184;16.564;2024-03-22T14:36:11;12.30;;;3.40;;
84794;SDS011;75026;49.184;16.564;2024-03-22T14:41:13;8.73;;;3.72;;
84794;SDS011;75026;49.184;16.564;2024-03-22T14:46:14;10.65;;;3.67;;
84794;SDS011;75026;49.184;16.564;2024-03-22T14:51:16;10.10;;;3.42;;
84794;SDS011;75026;49.184;16.564;2024-03-22T14:56:17;8.60;;;3.60;;
84794;SDS011;75026;49.184;16.564;2024-03-22T15:01:18;8.63;;;3.78;;
84794;SDS011;75026;49.184;16.564;2024-03-22T15:06:19;8.45;;;3.40;;
84794;SDS011;75026;49.184;16.564;2024-03-22T15:11:20;6.93;;;3.40;;
84794;SDS011;75026;49.184;16.564;2024-03-22T15:16:21;8.38;;;3.60;;
84794;SDS011;75026;49.184;16.564;2024-03-22T15:21:22;9.25;;;3.53;;
84794;SDS011;75026;49.184;16.564;2024-03-22T15:26:23;7.22;;;3.42;;
84794;SDS011;75026;49.184;16.564;2024-03-22T15:31:23;8.35;;;4.22;;
84794;SDS011;75026;49.184;16.564;2024-03-22T15:36:24;8.27;;;4.03;;
84794;SDS011;75026;49.184;16.564;2024-03-22T15:41:25;7.22;;;3.22;;
84794;SDS011;75026;49.184;16.564;2024-03-22T15:46:26;6.78;;;3.85;;
84794;SDS011;75026;49.184;16.564;2024-03-22T15:51:27;9.52;;;3.78;;
84794;SDS011;75026;49.184;16.564;2024-03-22T15:56:28;6.28;;;3.60;;
84794;SDS011;75026;49.184;16.564;2024-03-22T16:01:29;9.55;;;3.35;;
84794;SDS011;75026;49.184;16.564;2024-03-22T16:06:29;8.52;;;3.58;;
84794;SDS011;75026;49.184;16.564;2024-03-22T16:11:31;6.38;;;3.10;;
84794;SDS011;75026;49.184;16.564;2024-03-22T16:16:32;7.53;;;3.33;;
84794;SDS011;75026;49.184;16.564;2024-03-22T16:21:33;11.45;;;3.42;;
84794;SDS011;75026;49.184;16.564;2024-03-22T16:26:34;6.60;;;2.97;;
84794;SDS011;75026;49.184;16.564;2024-03-22T16:31:35;6.43;;;3.17;;
84794;SDS011;75026;49.184;16.564;2024-03-22T16:36:36;7.20;;;3.00;;
84794;SDS011;75026;49.184;16.564;2024-03-22T16:41:37;5.72;;;3.33;;
84794;SDS011;75026;49.184;16.564;2024-03-22T16:46:38;6.15;;;3.38;;
84794;SDS011;75026;49.184;16.564;2024-03-22T16:51:39;5.93;;;3.15;;
84794;SDS011;75026;49.184;16.564;2024-03-22T16:56:40;9.55;;;3.70;;
84794;SDS011;75026;49.184;16.564;2024-03-22T17:01:42;7.18;;;3.72;;
84794;SDS011;75026;49.184;16.564;2024-03-22T17:06:42;14.35;;;3.90;;
84794;SDS011;75026;49.184;16.564;2024-03-22T17:11:43;15.15;;;4.20;;
84794;SDS011;75026;49.184;16.564;2024-03-22T17:16:44;14.18;;;3.92;;
84794;SDS011;75026;49.184;16.564;2024-03-22T17:21:46;13.77;;;4.20;;
84794;SDS011;75026;49.184;16.564;2024-03-22T17:26:48;12.40;;;3.50;;
84794;SDS011;75026;49.184;16.564;2024-03-22T17:31:49;15.13;;;4.00;;
84794;SDS011;75026;49.184;16.564;2024-03-22T17:36:50;12.70;;;4.10;;
84794;SDS011;75026;49.184;16.564;2024-03-22T17:41:51;9.30;;;3.55;;
84794;SDS011;75026;49.184;16.564;2024-03-22T17:46:52;11.68;;;3.63;;
84794;SDS011;75026;49.184;16.564;2024-03-22T17:51:53;10.65;;;3.97;;
84794;SDS011;75026;49.184;16.564;2024-03-22T17:56:53;11.65;;;4.38;;
84794;SDS011;75026;49.184;16.564;2024-03-22T18:01:54;9.35;;;3.83;;
84794;SDS011;75026;49.184;16.564;2024-03-22T18:06:55;10.93;;;3.72;;
84794;SDS011;75026;49.184;16.564;2024-03-22T18:11:56;7.85;;;3.53;;
84794;SDS011;75026;49.184;16.564;2024-03-22T18:16:57;10.15;;;3.42;;
84794;SDS011;75026;49.184;16.564;2024-03-22T18:21:58;8.55;;;3.80;;
84794;SDS011;75026;49.184;16.564;2024-03-22T18:26:58;8.93;;;3.10;;
84794;SDS011;75026;49.184;16.564;2024-03-22T18:31:59;15.50;;;3.70;;
84794;SDS011;75026;49.184;16.564;2024-03-22T18:37:00;10.52;;;3.53;;
84794;SDS011;75026;49.184;16.564;2024-03-22T18:42:07;18.00;;;3.58;;
84794;SDS011;75026;49.184;16.564;2024-03-22T18:47:09;8.27;;;3.40;;
84794;SDS011;75026;49.184;16.564;2024-03-22T18:52:09;13.27;;;3.40;;
84794;SDS011;75026;49.184;16.564;2024-03-22T18:57:10;7.10;;;3.83;;
84794;SDS011;75026;49.184;16.564;2024-03-22T19:02:11;9.63;;;3.38;;
84794;SDS011;75026;49.184;16.564;2024-03-22T19:07:12;8.55;;;3.13;;
84794;SDS011;75026;49.184;16.564;2024-03-22T19:12:13;10.65;;;3.33;;
84794;SDS011;75026;49.184;16.564;2024-03-22T19:17:14;5.85;;;3.03;;
84794;SDS011;75026;49.184;16.564;2024-03-22T19:22:15;10.95;;;3.38;;
84794;SDS011;75026;49.184;16.564;2024-03-22T19:27:16;8.38;;;3.20;;
84794;SDS011;75026;49.184;16.564;2024-03-22T19:32:17;8.13;;;3.38;;
84794;SDS011;75026;49.184;16.564;2024-03-22T19:37:18;10.23;;;2.90;;
84794;SDS011;75026;49.184;16.564;2024-03-22T19:42:19;8.05;;;3.10;;
84794;SDS011;75026;49.184;16.564;2024-03-22T19:47:20;8.25;;;3.17;;
84794;SDS011;75026;49.184;16.564;2024-03-22T19:52:21;7.05;;;3.10;;
84794;SDS011;75026;49.184;16.564;2024-03-22T19:57:22;7.25;;;3.13;;
84794;SDS011;75026;49.184;16.564;2024-03-22T20:02:23;8.32;;;3.08;;
84794;SDS011;75026;49.184;16.564;2024-03-22T20:07:24;5.90;;;3.00;;
84794;SDS011;75026;49.184;16.564;2024-03-22T20:12:24;8.15;;;3.30;;
84794;SDS011;75026;49.184;16.564;2024-03-22T20:17:25;5.90;;;2.78;;
84794;SDS011;75026;49.184;16.564;2024-03-22T20:22:26;7.07;;;3.10;;
84794;SDS011;75026;49.184;16.564;2024-03-22T20:27:27;5.28;;;3.00;;
84794;SDS011;75026;49.184;16.564;2024-03-22T20:32:28;7.22;;;3.22;;
